sensor_id;sensor_type;location;lat;lon;timestamp;P1;durP1;ratioP1;P2;durP2;ratioP2
74551;SDS011;63025;55.472;38.432;2022-11-24T00:01:42;13.57;;;6.78;;
74551;SDS011;63025;55.472;38.432;2022-11-24T00:04:11;10.88;;;6.22;;
74551;SDS011;63025;55.472;38.432;2022-11-24T00:06:37;11.95;;;6.90;;
74551;SDS011;63025;55.472;38.432;2022-11-24T00:09:03;12.90;;;7.03;;
74551;SDS011;63025;55.472;38.432;2022-11-24T00:11:30;12.35;;;7.20;;
74551;SDS011;63025;55.472;38.432;2022-11-24T00:13:58;13.20;;;6.93;;
74551;SDS011;63025;55.472;38.432;2022-11-24T00:16:26;12.50;;;7.13;;
74551;SDS011;63025;55.472;38.432;2022-11-24T00:18:54;13.85;;;7.32;;
74551;SDS011;63025;55.472;38.432;2022-11-24T00:21:22;12.07;;;6.80;;
74551;SDS011;63025;55.472;38.432;2022-11-24T00:23:49;11.73;;;6.78;;
74551;SDS011;63025;55.472;38.432;2022-11-24T00:26:17;13.13;;;7.13;;
74551;SDS011;63025;55.472;38.432;2022-11-24T00:28:51;13.80;;;7.20;;
74551;SDS011;63025;55.472;38.432;2022-11-24T00:31:19;14.45;;;7.60;;
74551;SDS011;63025;55.472;38.432;2022-11-24T00:33:47;14.75;;;7.57;;
74551;SDS011;63025;55.472;38.432;2022-11-24T00:36:14;14.07;;;7.30;;
74551;SDS011;63025;55.472;38.432;2022-11-24T00:38:41;15.55;;;7.43;;
74551;SDS011;63025;55.472;38.432;2022-11-24T00:41:08;12.77;;;6.65;;
74551;SDS011;63025;55.472;38.432;2022-11-24T00:43:33;14.63;;;7.28;;
74551;SDS011;63025;55.472;38.432;2022-11-24T00:46:00;13.15;;;7.50;;
74551;SDS011;63025;55.472;38.432;2022-11-24T00:48:26;13.00;;;6.95;;
74551;SDS011;63025;55.472;38.432;2022-11-24T00:51:02;12.32;;;7.10;;
74551;SDS011;63025;55.472;38.432;2022-11-24T00:53:30;13.55;;;7.32;;
74551;SDS011;63025;55.472;38.432;2022-11-24T00:55:56;11.50;;;6.63;;
74551;SDS011;63025;55.472;38.432;2022-11-24T00:58:22;11.30;;;6.80;;
74551;SDS011;63025;55.472;38.432;2022-11-24T01:00:49;13.23;;;7.35;;
74551;SDS011;63025;55.472;38.432;2022-11-24T01:03:18;17.13;;;7.88;;
74551;SDS011;63025;55.472;38.432;2022-11-24T01:05:45;14.38;;;7.75;;
74551;SDS011;63025;55.472;38.432;2022-11-24T01:08:11;15.55;;;8.00;;
74551;SDS011;63025;55.472;38.432;2022-11-24T01:10:37;15.63;;;7.95;;
74551;SDS011;63025;55.472;38.432;2022-11-24T01:13:03;15.68;;;8.05;;
74551;SDS011;63025;55.472;38.432;2022-11-24T01:15:29;15.13;;;8.00;;
74551;SDS011;63025;55.472;38.432;2022-11-24T01:17:55;13.13;;;7.70;;
74551;SDS011;63025;55.472;38.432;2022-11-24T01:20:22;12.43;;;7.25;;
74551;SDS011;63025;55.472;38.432;2022-11-24T01:22:48;14.63;;;7.72;;
74551;SDS011;63025;55.472;38.432;2022-11-24T01:25:14;15.23;;;7.47;;
74551;SDS011;63025;55.472;38.432;2022-11-24T01:27:40;15.10;;;8.18;;
74551;SDS011;63025;55.472;38.432;2022-11-24T01:30:07;14.25;;;7.18;;
74551;SDS011;63025;55.472;38.432;2022-11-24T01:32:33;14.43;;;7.82;;
74551;SDS011;63025;55.472;38.432;2022-11-24T01:35:01;16.00;;;8.05;;
74551;SDS011;63025;55.472;38.432;2022-11-24T01:37:29;14.48;;;7.63;;
74551;SDS011;63025;55.472;38.432;2022-11-24T01:39:55;13.77;;;7.60;;
74551;SDS011;63025;55.472;38.432;2022-11-24T01:42:21;13.75;;;8.07;;
74551;SDS011;63025;55.472;38.432;2022-11-24T01:44:47;13.40;;;7.68;;
74551;SDS011;63025;55.472;38.432;2022-11-24T01:50:14;15.05;;;8.00;;
74551;SDS011;63025;55.472;38.432;2022-11-24T01:52:48;15.07;;;8.13;;
74551;SDS011;63025;55.472;38.432;2022-11-24T01:55:22;13.80;;;7.97;;
74551;SDS011;63025;55.472;38.432;2022-11-24T01:57:56;15.98;;;8.30;;
74551;SDS011;63025;55.472;38.432;2022-11-24T02:00:27;13.30;;;7.68;;
74551;SDS011;63025;55.472;38.432;2022-11-24T02:02:54;14.85;;;8.10;;
74551;SDS011;63025;55.472;38.432;2022-11-24T02:05:25;14.88;;;7.95;;
74551;SDS011;63025;55.472;38.432;2022-11-24T02:07:55;15.20;;;7.93;;
74551;SDS011;63025;55.472;38.432;2022-11-24T02:10:24;15.27;;;8.18;;
74551;SDS011;63025;55.472;38.432;2022-11-24T02:12:51;14.38;;;7.13;;
74551;SDS011;63025;55.472;38.432;2022-11-24T02:15:19;11.98;;;7.13;;
74551;SDS011;63025;55.472;38.432;2022-11-24T02:17:45;14.20;;;7.72;;
74551;SDS011;63025;55.472;38.432;2022-11-24T02:20:11;14.75;;;7.70;;
74551;SDS011;63025;55.472;38.432;2022-11-24T02:28:11;16.85;;;8.45;;
74551;SDS011;63025;55.472;38.432;2022-11-24T02:30:40;14.70;;;7.60;;
74551;SDS011;63025;55.472;38.432;2022-11-24T02:33:06;13.30;;;7.47;;
74551;SDS011;63025;55.472;38.432;2022-11-24T02:35:32;13.13;;;7.47;;
74551;SDS011;63025;55.472;38.432;2022-11-24T02:37:58;14.10;;;7.00;;
74551;SDS011;63025;55.472;38.432;2022-11-24T02:40:24;15.00;;;7.53;;
74551;SDS011;63025;55.472;38.432;2022-11-24T02:42:58;13.10;;;7.03;;
74551;SDS011;63025;55.472;38.432;2022-11-24T02:45:28;15.07;;;8.10;;
74551;SDS011;63025;55.472;38.432;2022-11-24T02:47:56;13.38;;;7.32;;
74551;SDS011;63025;55.472;38.432;2022-11-24T02:50:22;14.48;;;7.75;;
74551;SDS011;63025;55.472;38.432;2022-11-24T02:52:48;13.38;;;7.75;;
74551;SDS011;63025;55.472;38.432;2022-11-24T02:55:14;14.32;;;7.65;;
74551;SDS011;63025;55.472;38.432;2022-11-24T02:57:40;14.32;;;7.28;;
74551;SDS011;63025;55.472;38.432;2022-11-24T03:00:06;14.93;;;7.95;;
74551;SDS011;63025;55.472;38.432;2022-11-24T03:02:33;12.48;;;7.03;;
74551;SDS011;63025;55.472;38.432;2022-11-24T03:04:59;11.88;;;7.13;;
74551;SDS011;63025;55.472;38.432;2022-11-24T03:07:24;14.30;;;7.72;;
74551;SDS011;63025;55.472;38.432;2022-11-24T03:09:50;17.38;;;7.97;;
74551;SDS011;63025;55.472;38.432;2022-11-24T03:12:16;14.95;;;7.60;;
74551;SDS011;63025;55.472;38.432;2022-11-24T03:14:42;13.70;;;7.25;;
74551;SDS011;63025;55.472;38.432;2022-11-24T03:17:08;14.20;;;7.63;;
74551;SDS011;63025;55.472;38.432;2022-11-24T03:19:34;15.52;;;7.65;;
74551;SDS011;63025;55.472;38.432;2022-11-24T03:22:00;15.68;;;8.23;;
74551;SDS011;63025;55.472;38.432;2022-11-24T03:24:25;16.98;;;8.07;;
74551;SDS011;63025;55.472;38.432;2022-11-24T03:26:51;13.50;;;7.40;;
74551;SDS011;63025;55.472;38.432;2022-11-24T03:29:17;15.15;;;7.82;;
74551;SDS011;63025;55.472;38.432;2022-11-24T03:31:43;16.27;;;8.05;;
74551;SDS011;63025;55.472;38.432;2022-11-24T03:34:09;17.23;;;8.13;;
74551;SDS011;63025;55.472;38.432;2022-11-24T03:36:35;16.55;;;8.82;;
74551;SDS011;63025;55.472;38.432;2022-11-24T03:39:00;14.85;;;7.75;;
74551;SDS011;63025;55.472;38.432;2022-11-24T03:41:26;17.88;;;8.55;;
74551;SDS011;63025;55.472;38.432;2022-11-24T03:43:52;18.02;;;9.52;;
74551;SDS011;63025;55.472;38.432;2022-11-24T03:46:18;14.43;;;8.15;;
74551;SDS011;63025;55.472;38.432;2022-11-24T03:48:44;16.40;;;8.57;;
74551;SDS011;63025;55.472;38.432;2022-11-24T03:51:10;16.02;;;8.77;;
74551;SDS011;63025;55.472;38.432;2022-11-24T03:53:36;15.65;;;7.68;;
74551;SDS011;63025;55.472;38.432;2022-11-24T03:56:02;16.77;;;8.32;;
74551;SDS011;63025;55.472;38.432;2022-11-24T03:58:28;14.77;;;8.50;;
74551;SDS011;63025;55.472;38.432;2022-11-24T04:00:55;16.75;;;9.20;;
74551;SDS011;63025;55.472;38.432;2022-11-24T04:03:22;17.23;;;8.95;;
74551;SDS011;63025;55.472;38.432;2022-11-24T04:05:48;16.10;;;8.20;;
74551;SDS011;63025;55.472;38.432;2022-11-24T04:08:14;14.98;;;8.10;;
74551;SDS011;63025;55.472;38.432;2022-11-24T04:10:41;14.95;;;8.00;;
74551;SDS011;63025;55.472;38.432;2022-11-24T04:13:11;14.88;;;8.10;;
74551;SDS011;63025;55.472;38.432;2022-11-24T04:15:40;17.67;;;8.40;;
74551;SDS011;63025;55.472;38.432;2022-11-24T04:18:07;14.25;;;8.05;;
74551;SDS011;63025;55.472;38.432;2022-11-24T04:20:34;16.48;;;8.18;;
74551;SDS011;63025;55.472;38.432;2022-11-24T04:23:00;16.75;;;8.70;;
74551;SDS011;63025;55.472;38.432;2022-11-24T04:25:27;14.63;;;7.95;;
74551;SDS011;63025;55.472;38.432;2022-11-24T04:27:53;15.23;;;8.52;;
74551;SDS011;63025;55.472;38.432;2022-11-24T04:30:20;14.50;;;7.90;;
74551;SDS011;63025;55.472;38.432;2022-11-24T04:32:47;15.25;;;8.02;;
74551;SDS011;63025;55.472;38.432;2022-11-24T04:35:13;17.92;;;9.00;;
74551;SDS011;63025;55.472;38.432;2022-11-24T04:37:40;15.73;;;7.80;;
74551;SDS011;63025;55.472;38.432;2022-11-24T04:40:06;17.48;;;7.55;;
74551;SDS011;63025;55.472;38.432;2022-11-24T04:42:34;15.90;;;7.95;;
74551;SDS011;63025;55.472;38.432;2022-11-24T04:45:00;13.05;;;7.25;;
74551;SDS011;63025;55.472;38.432;2022-11-24T04:47:26;18.30;;;9.75;;
74551;SDS011;63025;55.472;38.432;2022-11-24T04:49:52;16.70;;;8.35;;
74551;SDS011;63025;55.472;38.432;2022-11-24T04:52:19;16.08;;;8.77;;
74551;SDS011;63025;55.472;38.432;2022-11-24T04:54:47;17.00;;;8.27;;
74551;SDS011;63025;55.472;38.432;2022-11-24T04:57:20;18.40;;;8.52;;
74551;SDS011;63025;55.472;38.432;2022-11-24T04:59:48;15.93;;;8.20;;
74551;SDS011;63025;55.472;38.432;2022-11-24T05:02:15;17.40;;;8.15;;
74551;SDS011;63025;55.472;38.432;2022-11-24T05:04:41;15.77;;;8.20;;
74551;SDS011;63025;55.472;38.432;2022-11-24T05:07:11;16.13;;;8.52;;
74551;SDS011;63025;55.472;38.432;2022-11-24T05:09:38;14.60;;;8.40;;
74551;SDS011;63025;55.472;38.432;2022-11-24T05:12:24;16.50;;;8.32;;
74551;SDS011;63025;55.472;38.432;2022-11-24T05:14:58;15.05;;;8.27;;
74551;SDS011;63025;55.472;38.432;2022-11-24T05:17:33;18.20;;;8.82;;
74551;SDS011;63025;55.472;38.432;2022-11-24T05:20:00;15.95;;;8.07;;
74551;SDS011;63025;55.472;38.432;2022-11-24T05:22:27;18.77;;;8.68;;
74551;SDS011;63025;55.472;38.432;2022-11-24T05:24:53;14.73;;;7.90;;
74551;SDS011;63025;55.472;38.432;2022-11-24T05:27:19;18.38;;;9.18;;
74551;SDS011;63025;55.472;38.432;2022-11-24T05:29:45;18.20;;;8.25;;
74551;SDS011;63025;55.472;38.432;2022-11-24T05:32:11;17.08;;;8.98;;
74551;SDS011;63025;55.472;38.432;2022-11-24T05:34:37;18.70;;;8.60;;
74551;SDS011;63025;55.472;38.432;2022-11-24T05:37:03;17.33;;;8.90;;
74551;SDS011;63025;55.472;38.432;2022-11-24T05:39:33;18.15;;;9.35;;
74551;SDS011;63025;55.472;38.432;2022-11-24T05:42:02;19.20;;;9.13;;
74551;SDS011;63025;55.472;38.432;2022-11-24T05:44:49;18.85;;;8.52;;
74551;SDS011;63025;55.472;38.432;2022-11-24T05:47:16;16.70;;;8.77;;
74551;SDS011;63025;55.472;38.432;2022-11-24T05:49:42;18.08;;;8.68;;
74551;SDS011;63025;55.472;38.432;2022-11-24T05:52:08;17.42;;;8.80;;
74551;SDS011;63025;55.472;38.432;2022-11-24T05:54:35;20.25;;;8.90;;
74551;SDS011;63025;55.472;38.432;2022-11-24T05:57:00;15.30;;;8.70;;
74551;SDS011;63025;55.472;38.432;2022-11-24T05:59:26;18.55;;;8.48;;
74551;SDS011;63025;55.472;38.432;2022-11-24T06:01:52;18.42;;;9.00;;
74551;SDS011;63025;55.472;38.432;2022-11-24T06:04:18;19.63;;;9.40;;
74551;SDS011;63025;55.472;38.432;2022-11-24T06:06:45;19.17;;;9.15;;
74551;SDS011;63025;55.472;38.432;2022-11-24T06:09:11;20.02;;;8.90;;
74551;SDS011;63025;55.472;38.432;2022-11-24T06:11:37;19.60;;;8.95;;
74551;SDS011;63025;55.472;38.432;2022-11-24T06:14:03;19.67;;;9.98;;
74551;SDS011;63025;55.472;38.432;2022-11-24T06:16:29;19.27;;;9.32;;
74551;SDS011;63025;55.472;38.432;2022-11-24T06:18:54;17.55;;;9.43;;
74551;SDS011;63025;55.472;38.432;2022-11-24T06:21:20;21.90;;;10.05;;
74551;SDS011;63025;55.472;38.432;2022-11-24T06:23:46;21.55;;;9.85;;
74551;SDS011;63025;55.472;38.432;2022-11-24T06:26:13;23.25;;;9.98;;
74551;SDS011;63025;55.472;38.432;2022-11-24T06:28:39;19.05;;;9.65;;
74551;SDS011;63025;55.472;38.432;2022-11-24T06:31:06;20.95;;;9.30;;
74551;SDS011;63025;55.472;38.432;2022-11-24T06:33:32;21.05;;;9.52;;
74551;SDS011;63025;55.472;38.432;2022-11-24T06:36:03;17.67;;;9.15;;
74551;SDS011;63025;55.472;38.432;2022-11-24T06:38:31;19.40;;;9.27;;
74551;SDS011;63025;55.472;38.432;2022-11-24T06:40:59;17.70;;;8.75;;
74551;SDS011;63025;55.472;38.432;2022-11-24T06:43:26;19.80;;;9.15;;
74551;SDS011;63025;55.472;38.432;2022-11-24T06:45:53;16.10;;;8.82;;
74551;SDS011;63025;55.472;38.432;2022-11-24T06:48:19;17.17;;;8.48;;
74551;SDS011;63025;55.472;38.432;2022-11-24T06:50:45;16.25;;;8.30;;
74551;SDS011;63025;55.472;38.432;2022-11-24T06:53:10;17.48;;;8.57;;
74551;SDS011;63025;55.472;38.432;2022-11-24T06:55:37;18.88;;;8.77;;
74551;SDS011;63025;55.472;38.432;2022-11-24T06:58:04;16.38;;;8.45;;
74551;SDS011;63025;55.472;38.432;2022-11-24T07:00:30;15.48;;;8.32;;
74551;SDS011;63025;55.472;38.432;2022-11-24T07:02:59;15.35;;;7.85;;
74551;SDS011;63025;55.472;38.432;2022-11-24T07:05:25;15.80;;;8.60;;
74551;SDS011;63025;55.472;38.432;2022-11-24T07:07:51;15.43;;;8.13;;
74551;SDS011;63025;55.472;38.432;2022-11-24T07:10:17;15.70;;;7.75;;
74551;SDS011;63025;55.472;38.432;2022-11-24T07:12:43;14.15;;;7.68;;
74551;SDS011;63025;55.472;38.432;2022-11-24T07:15:10;16.92;;;8.23;;
74551;SDS011;63025;55.472;38.432;2022-11-24T07:17:36;19.50;;;8.98;;
74551;SDS011;63025;55.472;38.432;2022-11-24T07:20:03;15.32;;;8.15;;
74551;SDS011;63025;55.472;38.432;2022-11-24T07:22:30;18.70;;;8.93;;
74551;SDS011;63025;55.472;38.432;2022-11-24T07:24:56;16.48;;;8.63;;
74551;SDS011;63025;55.472;38.432;2022-11-24T07:27:22;15.65;;;8.05;;
74551;SDS011;63025;55.472;38.432;2022-11-24T07:29:47;14.57;;;7.80;;
74551;SDS011;63025;55.472;38.432;2022-11-24T07:32:13;15.75;;;8.30;;
74551;SDS011;63025;55.472;38.432;2022-11-24T07:34:39;15.95;;;8.48;;
74551;SDS011;63025;55.472;38.432;2022-11-24T07:37:05;16.17;;;8.52;;
74551;SDS011;63025;55.472;38.432;2022-11-24T07:39:31;17.83;;;8.77;;
74551;SDS011;63025;55.472;38.432;2022-11-24T07:41:57;16.73;;;7.90;;
74551;SDS011;63025;55.472;38.432;2022-11-24T07:44:24;17.15;;;7.95;;
74551;SDS011;63025;55.472;38.432;2022-11-24T07:46:51;17.98;;;8.25;;
74551;SDS011;63025;55.472;38.432;2022-11-24T07:49:17;15.68;;;7.75;;
74551;SDS011;63025;55.472;38.432;2022-11-24T07:51:44;17.85;;;8.75;;
74551;SDS011;63025;55.472;38.432;2022-11-24T07:54:10;15.13;;;7.80;;
74551;SDS011;63025;55.472;38.432;2022-11-24T07:56:36;15.88;;;8.35;;
74551;SDS011;63025;55.472;38.432;2022-11-24T07:59:02;16.95;;;8.93;;
74551;SDS011;63025;55.472;38.432;2022-11-24T08:01:28;18.75;;;8.38;;
74551;SDS011;63025;55.472;38.432;2022-11-24T08:03:54;17.45;;;8.95;;
74551;SDS011;63025;55.472;38.432;2022-11-24T08:06:20;17.05;;;8.82;;
74551;SDS011;63025;55.472;38.432;2022-11-24T08:08:46;17.20;;;9.45;;
74551;SDS011;63025;55.472;38.432;2022-11-24T08:11:16;19.40;;;9.25;;
74551;SDS011;63025;55.472;38.432;2022-11-24T08:13:42;18.60;;;8.18;;
74551;SDS011;63025;55.472;38.432;2022-11-24T08:16:09;16.35;;;9.00;;
74551;SDS011;63025;55.472;38.432;2022-11-24T08:18:37;17.52;;;8.80;;
74551;SDS011;63025;55.472;38.432;2022-11-24T08:21:04;16.95;;;8.98;;
74551;SDS011;63025;55.472;38.432;2022-11-24T08:23:31;14.80;;;8.05;;
74551;SDS011;63025;55.472;38.432;2022-11-24T08:25:57;17.63;;;9.40;;
74551;SDS011;63025;55.472;38.432;2022-11-24T08:28:29;15.43;;;8.50;;
74551;SDS011;63025;55.472;38.432;2022-11-24T08:31:06;17.45;;;9.25;;
74551;SDS011;63025;55.472;38.432;2022-11-24T08:33:34;19.23;;;9.35;;
74551;SDS011;63025;55.472;38.432;2022-11-24T08:36:33;15.32;;;8.82;;
74551;SDS011;63025;55.472;38.432;2022-11-24T08:38:56;18.20;;;8.52;;
74551;SDS011;63025;55.472;38.432;2022-11-24T08:41:23;17.10;;;9.30;;
74551;SDS011;63025;55.472;38.432;2022-11-24T08:43:50;17.88;;;8.50;;
74551;SDS011;63025;55.472;38.432;2022-11-24T08:46:16;17.77;;;8.75;;
74551;SDS011;63025;55.472;38.432;2022-11-24T08:48:46;18.23;;;9.73;;
74551;SDS011;63025;55.472;38.432;2022-11-24T08:51:14;16.77;;;8.77;;
74551;SDS011;63025;55.472;38.432;2022-11-24T08:53:41;17.00;;;8.65;;
74551;SDS011;63025;55.472;38.432;2022-11-24T08:56:08;18.27;;;8.93;;
74551;SDS011;63025;55.472;38.432;2022-11-24T08:58:35;18.75;;;9.15;;
74551;SDS011;63025;55.472;38.432;2022-11-24T09:01:06;17.83;;;9.15;;
74551;SDS011;63025;55.472;38.432;2022-11-24T09:03:37;20.17;;;10.70;;
74551;SDS011;63025;55.472;38.432;2022-11-24T09:06:04;18.05;;;9.00;;
74551;SDS011;63025;55.472;38.432;2022-11-24T09:08:31;19.42;;;10.13;;
74551;SDS011;63025;55.472;38.432;2022-11-24T09:10:58;18.33;;;9.57;;
74551;SDS011;63025;55.472;38.432;2022-11-24T09:13:40;15.52;;;8.93;;
74551;SDS011;63025;55.472;38.432;2022-11-24T09:16:08;18.10;;;8.90;;
74551;SDS011;63025;55.472;38.432;2022-11-24T09:18:36;15.65;;;8.23;;
74551;SDS011;63025;55.472;38.432;2022-11-24T09:21:10;17.35;;;9.07;;
74551;SDS011;63025;55.472;38.432;2022-11-24T09:23:44;16.25;;;8.57;;
74551;SDS011;63025;55.472;38.432;2022-11-24T09:26:13;20.13;;;10.10;;
74551;SDS011;63025;55.472;38.432;2022-11-24T09:28:41;16.67;;;8.93;;
74551;SDS011;63025;55.472;38.432;2022-11-24T09:31:08;19.33;;;10.65;;
74551;SDS011;63025;55.472;38.432;2022-11-24T09:33:36;20.48;;;10.43;;
74551;SDS011;63025;55.472;38.432;2022-11-24T09:36:02;18.63;;;8.98;;
74551;SDS011;63025;55.472;38.432;2022-11-24T09:38:29;20.95;;;11.00;;
74551;SDS011;63025;55.472;38.432;2022-11-24T09:40:55;16.65;;;9.45;;
74551;SDS011;63025;55.472;38.432;2022-11-24T09:46:53;24.08;;;12.27;;
74551;SDS011;63025;55.472;38.432;2022-11-24T09:49:26;21.23;;;10.55;;
74551;SDS011;63025;55.472;38.432;2022-11-24T09:51:54;25.38;;;11.60;;
74551;SDS011;63025;55.472;38.432;2022-11-24T09:54:25;22.70;;;10.57;;
74551;SDS011;63025;55.472;38.432;2022-11-24T09:56:55;23.63;;;12.20;;
74551;SDS011;63025;55.472;38.432;2022-11-24T09:59:24;19.35;;;10.82;;
74551;SDS011;63025;55.472;38.432;2022-11-24T10:01:51;20.52;;;10.88;;
74551;SDS011;63025;55.472;38.432;2022-11-24T10:04:24;20.80;;;10.38;;
74551;SDS011;63025;55.472;38.432;2022-11-24T10:17:51;23.02;;;11.35;;
74551;SDS011;63025;55.472;38.432;2022-11-24T10:31:43;24.88;;;13.57;;
74551;SDS011;63025;55.472;38.432;2022-11-24T10:34:58;28.17;;;12.95;;
74551;SDS011;63025;55.472;38.432;2022-11-24T10:42:39;19.75;;;10.15;;
74551;SDS011;63025;55.472;38.432;2022-11-24T10:47:37;24.00;;;11.65;;
74551;SDS011;63025;55.472;38.432;2022-11-24T10:50:08;19.77;;;10.98;;
74551;SDS011;63025;55.472;38.432;2022-11-24T10:52:44;21.35;;;10.15;;
74551;SDS011;63025;55.472;38.432;2022-11-24T10:55:15;19.60;;;9.85;;
74551;SDS011;63025;55.472;38.432;2022-11-24T10:57:41;21.95;;;11.32;;
74551;SDS011;63025;55.472;38.432;2022-11-24T11:02:42;21.77;;;11.18;;
74551;SDS011;63025;55.472;38.432;2022-11-24T11:08:26;22.75;;;11.98;;
74551;SDS011;63025;55.472;38.432;2022-11-24T11:11:40;19.27;;;10.63;;
74551;SDS011;63025;55.472;38.432;2022-11-24T11:18:54;23.65;;;11.63;;
74551;SDS011;63025;55.472;38.432;2022-11-24T11:21:25;23.25;;;11.15;;
74551;SDS011;63025;55.472;38.432;2022-11-24T11:24:15;22.65;;;11.25;;
74551;SDS011;63025;55.472;38.432;2022-11-24T11:26:42;21.23;;;11.25;;
74551;SDS011;63025;55.472;38.432;2022-11-24T11:29:12;25.67;;;13.25;;
74551;SDS011;63025;55.472;38.432;2022-11-24T11:31:40;20.20;;;11.38;;
74551;SDS011;63025;55.472;38.432;2022-11-24T11:36:46;22.38;;;11.82;;
74551;SDS011;63025;55.472;38.432;2022-11-24T11:39:19;29.85;;;13.00;;
74551;SDS011;63025;55.472;38.432;2022-11-24T11:46:52;28.10;;;11.90;;
74551;SDS011;63025;55.472;38.432;2022-11-24T11:49:22;27.20;;;11.82;;
74551;SDS011;63025;55.472;38.432;2022-11-24T11:51:55;24.60;;;11.43;;
74551;SDS011;63025;55.472;38.432;2022-11-24T11:56:54;23.52;;;11.50;;
74551;SDS011;63025;55.472;38.432;2022-11-24T12:10:47;24.50;;;11.23;;
74551;SDS011;63025;55.472;38.432;2022-11-24T12:16:46;22.42;;;11.35;;
74551;SDS011;63025;55.472;38.432;2022-11-24T12:25:36;20.27;;;10.88;;
74551;SDS011;63025;55.472;38.432;2022-11-24T12:27:59;22.63;;;11.40;;
74551;SDS011;63025;55.472;38.432;2022-11-24T12:30:44;20.20;;;10.43;;
74551;SDS011;63025;55.472;38.432;2022-11-24T12:39:40;21.47;;;10.20;;
74551;SDS011;63025;55.472;38.432;2022-11-24T12:50:19;24.35;;;10.65;;
74551;SDS011;63025;55.472;38.432;2022-11-24T12:53:11;21.73;;;10.98;;
74551;SDS011;63025;55.472;38.432;2022-11-24T12:55:40;23.08;;;12.02;;
74551;SDS011;63025;55.472;38.432;2022-11-24T13:06:47;30.50;;;14.55;;
74551;SDS011;63025;55.472;38.432;2022-11-24T13:09:15;25.35;;;12.13;;
74551;SDS011;63025;55.472;38.432;2022-11-24T13:11:42;23.02;;;12.02;;
74551;SDS011;63025;55.472;38.432;2022-11-24T13:14:14;18.92;;;11.85;;
74551;SDS011;63025;55.472;38.432;2022-11-24T13:16:53;22.27;;;11.57;;
74551;SDS011;63025;55.472;38.432;2022-11-24T13:19:20;20.15;;;11.10;;
74551;SDS011;63025;55.472;38.432;2022-11-24T13:24:32;24.63;;;12.20;;
74551;SDS011;63025;55.472;38.432;2022-11-24T13:29:42;22.58;;;11.38;;
74551;SDS011;63025;55.472;38.432;2022-11-24T13:35:03;22.65;;;11.77;;
74551;SDS011;63025;55.472;38.432;2022-11-24T13:56:02;16.70;;;8.93;;
74551;SDS011;63025;55.472;38.432;2022-11-24T13:58:45;19.77;;;10.38;;
74551;SDS011;63025;55.472;38.432;2022-11-24T14:08:53;14.90;;;8.38;;
74551;SDS011;63025;55.472;38.432;2022-11-24T14:11:21;14.75;;;8.05;;
74551;SDS011;63025;55.472;38.432;2022-11-24T14:13:47;18.05;;;9.35;;
74551;SDS011;63025;55.472;38.432;2022-11-24T14:18:44;17.33;;;9.18;;
74551;SDS011;63025;55.472;38.432;2022-11-24T14:26:39;13.18;;;7.10;;
74551;SDS011;63025;55.472;38.432;2022-11-24T14:29:09;14.57;;;7.32;;
74551;SDS011;63025;55.472;38.432;2022-11-24T14:31:37;14.15;;;7.60;;
74551;SDS011;63025;55.472;38.432;2022-11-24T14:34:11;14.80;;;8.00;;
74551;SDS011;63025;55.472;38.432;2022-11-24T14:36:42;14.10;;;7.32;;
74551;SDS011;63025;55.472;38.432;2022-11-24T14:39:26;12.68;;;6.78;;
74551;SDS011;63025;55.472;38.432;2022-11-24T14:41:56;14.32;;;7.10;;
74551;SDS011;63025;55.472;38.432;2022-11-24T14:44:28;15.00;;;8.20;;
74551;SDS011;63025;55.472;38.432;2022-11-24T14:47:17;13.32;;;7.38;;
74551;SDS011;63025;55.472;38.432;2022-11-24T14:49:44;13.40;;;7.13;;
74551;SDS011;63025;55.472;38.432;2022-11-24T14:52:11;12.10;;;6.40;;
74551;SDS011;63025;55.472;38.432;2022-11-24T14:54:54;14.57;;;6.72;;
74551;SDS011;63025;55.472;38.432;2022-11-24T14:57:29;13.23;;;7.22;;
74551;SDS011;63025;55.472;38.432;2022-11-24T15:00:04;13.13;;;6.40;;
74551;SDS011;63025;55.472;38.432;2022-11-24T15:05:14;17.00;;;7.95;;
74551;SDS011;63025;55.472;38.432;2022-11-24T15:07:44;16.33;;;7.65;;
74551;SDS011;63025;55.472;38.432;2022-11-24T15:13:02;15.57;;;7.45;;
74551;SDS011;63025;55.472;38.432;2022-11-24T15:15:32;14.80;;;7.25;;
74551;SDS011;63025;55.472;38.432;2022-11-24T15:18:01;14.20;;;7.32;;
74551;SDS011;63025;55.472;38.432;2022-11-24T15:20:35;13.90;;;7.07;;
74551;SDS011;63025;55.472;38.432;2022-11-24T15:23:25;14.52;;;6.72;;
74551;SDS011;63025;55.472;38.432;2022-11-24T15:28:27;14.32;;;7.00;;
74551;SDS011;63025;55.472;38.432;2022-11-24T15:31:01;12.90;;;6.25;;
74551;SDS011;63025;55.472;38.432;2022-11-24T15:33:28;13.50;;;6.70;;
74551;SDS011;63025;55.472;38.432;2022-11-24T15:35:55;14.43;;;6.55;;
74551;SDS011;63025;55.472;38.432;2022-11-24T15:38:22;13.90;;;6.63;;
74551;SDS011;63025;55.472;38.432;2022-11-24T15:40:49;15.10;;;6.82;;
74551;SDS011;63025;55.472;38.432;2022-11-24T15:46:05;13.73;;;6.82;;
74551;SDS011;63025;55.472;38.432;2022-11-24T15:48:32;12.98;;;6.60;;
74551;SDS011;63025;55.472;38.432;2022-11-24T15:50:58;12.90;;;6.60;;
74551;SDS011;63025;55.472;38.432;2022-11-24T15:53:31;13.48;;;5.85;;
74551;SDS011;63025;55.472;38.432;2022-11-24T15:56:18;12.45;;;6.05;;
74551;SDS011;63025;55.472;38.432;2022-11-24T15:59:08;11.45;;;6.05;;
74551;SDS011;63025;55.472;38.432;2022-11-24T16:01:38;13.30;;;6.38;;
74551;SDS011;63025;55.472;38.432;2022-11-24T16:04:04;14.50;;;7.35;;
74551;SDS011;63025;55.472;38.432;2022-11-24T16:06:29;16.17;;;6.88;;
74551;SDS011;63025;55.472;38.432;2022-11-24T16:08:56;16.40;;;7.35;;
74551;SDS011;63025;55.472;38.432;2022-11-24T16:11:22;24.50;;;11.30;;
74551;SDS011;63025;55.472;38.432;2022-11-24T16:13:48;18.08;;;8.43;;
74551;SDS011;63025;55.472;38.432;2022-11-24T16:16:14;16.02;;;8.48;;
74551;SDS011;63025;55.472;38.432;2022-11-24T16:18:40;17.25;;;9.05;;
74551;SDS011;63025;55.472;38.432;2022-11-24T16:21:07;14.60;;;8.15;;
74551;SDS011;63025;55.472;38.432;2022-11-24T16:23:34;17.77;;;9.60;;
74551;SDS011;63025;55.472;38.432;2022-11-24T16:26:01;15.77;;;8.77;;
74551;SDS011;63025;55.472;38.432;2022-11-24T16:28:30;14.55;;;8.23;;
74551;SDS011;63025;55.472;38.432;2022-11-24T16:30:56;18.23;;;9.40;;
74551;SDS011;63025;55.472;38.432;2022-11-24T16:33:22;16.83;;;9.57;;
74551;SDS011;63025;55.472;38.432;2022-11-24T16:35:48;15.43;;;7.85;;
74551;SDS011;63025;55.472;38.432;2022-11-24T16:38:15;14.55;;;7.90;;
74551;SDS011;63025;55.472;38.432;2022-11-24T16:40:42;14.50;;;7.20;;
74551;SDS011;63025;55.472;38.432;2022-11-24T16:43:08;15.40;;;7.35;;
74551;SDS011;63025;55.472;38.432;2022-11-24T16:45:34;13.45;;;6.80;;
74551;SDS011;63025;55.472;38.432;2022-11-24T16:48:00;12.13;;;6.25;;
74551;SDS011;63025;55.472;38.432;2022-11-24T16:50:26;15.57;;;7.20;;
74551;SDS011;63025;55.472;38.432;2022-11-24T16:52:52;14.25;;;7.50;;
74551;SDS011;63025;55.472;38.432;2022-11-24T16:55:18;13.38;;;6.25;;
74551;SDS011;63025;55.472;38.432;2022-11-24T16:57:44;12.93;;;6.93;;
74551;SDS011;63025;55.472;38.432;2022-11-24T17:00:10;15.30;;;7.18;;
74551;SDS011;63025;55.472;38.432;2022-11-24T17:02:36;13.48;;;6.93;;
74551;SDS011;63025;55.472;38.432;2022-11-24T17:05:02;14.23;;;7.45;;
74551;SDS011;63025;55.472;38.432;2022-11-24T17:07:29;13.43;;;6.93;;